NCAR-RAP Real-Time Weather Data

Output produced by METARs form (27 May 2017  08:19 UTC)
found at http://weather.rap.ucar.edu/surface/
 
Conditions at: KBKV observed 27 May 2017  07:53 UTC
Temperature: 14.4°C (58°F)
Dewpoint: 13.3°C (56°F) [RH = 93%]
Pressure (altimeter): 30.06 inches Hg (1018.0 mb)
[Sea-level pressure: 1017.7 mb]
Winds: calm
Visibility: 10 or more miles (16+ km)
Ceiling: at least 12,000 feet AGL
Clouds: sky clear below 12,000 feet AGL
Present Weather: automated observation with no human augmentation;
there may or may not be significant weather present at this time
KBKV 270753Z AUTO 00000KT 10SM CLR 14/13 A3006 RMK AO2 SLP177 T01440133

Conditions at: KBKV observed 27 May 2017  06:53 UTC
Temperature: 13.9°C (57°F)
Dewpoint: 13.3°C (56°F) [RH = 96%]
Pressure (altimeter): 30.07 inches Hg (1018.4 mb)
[Sea-level pressure: 1017.9 mb]
Winds: calm
Visibility: 10 or more miles (16+ km)
Ceiling: at least 12,000 feet AGL
Clouds: sky clear below 12,000 feet AGL
Present Weather: automated observation with no human augmentation;
there may or may not be significant weather present at this time
KBKV 270653Z AUTO 00000KT 10SM CLR 14/13 A3007 RMK AO2 SLP179 T01390133

Conditions at: KBKV observed 27 May 2017  05:53 UTC
Temperature: 15.0°C (59°F)
Dewpoint: 13.9°C (57°F) [RH = 93%]
Pressure (altimeter): 30.07 inches Hg (1018.4 mb)
[Sea-level pressure: 1018.2 mb]
Winds: calm
Visibility: 10 or more miles (16+ km)
Ceiling: at least 12,000 feet AGL
Clouds: sky clear below 12,000 feet AGL
Present Weather: automated observation with no human augmentation;
there may or may not be significant weather present at this time
KBKV 270553Z AUTO 00000KT 10SM CLR 15/14 A3007 RMK AO2 SLP182 T01500139 10244 20150 58001

Conditions at: KBKV observed 27 May 2017  04:53 UTC
Temperature: 15.6°C (60°F)
Dewpoint: 13.9°C (57°F) [RH = 90%]
Pressure (altimeter): 30.09 inches Hg (1019.0 mb)
[Sea-level pressure: 1018.6 mb]
Winds: calm
Visibility: 10 or more miles (16+ km)
Ceiling: at least 12,000 feet AGL
Clouds: sky clear below 12,000 feet AGL
Present Weather: automated observation with no human augmentation;
there may or may not be significant weather present at this time
KBKV 270453Z AUTO 00000KT 10SM CLR 16/14 A3009 RMK AO2 SLP186 T01560139 403060150

Conditions at: KBKV observed 27 May 2017  03:53 UTC
Temperature: 16.7°C (62°F)
Dewpoint: 14.4°C (58°F) [RH = 86%]
Pressure (altimeter): 30.08 inches Hg (1018.7 mb)
[Sea-level pressure: 1018.4 mb]
Winds: calm
Visibility: 10 or more miles (16+ km)
Ceiling: at least 12,000 feet AGL
Clouds: sky clear below 12,000 feet AGL
Present Weather: automated observation with no human augmentation;
there may or may not be significant weather present at this time
KBKV 270353Z AUTO 00000KT 10SM CLR 17/14 A3008 RMK AO2 SLP184 T01670144

Conditions at: KBKV observed 27 May 2017  02:53 UTC
Temperature: 17.2°C (63°F)
Dewpoint: 15.0°C (59°F) [RH = 87%]
Pressure (altimeter): 30.08 inches Hg (1018.7 mb)
[Sea-level pressure: 1018.3 mb]
Winds: calm
Visibility: 10 or more miles (16+ km)
Ceiling: at least 12,000 feet AGL
Clouds: sky clear below 12,000 feet AGL
Present Weather: automated observation with no human augmentation;
there may or may not be significant weather present at this time
KBKV 270253Z AUTO 00000KT 10SM CLR 17/15 A3008 RMK AO2 SLP183 T01720150 51010

Conditions at: KBKV observed 27 May 2017  01:53 UTC
Temperature: 17.2°C (63°F)
Dewpoint: 13.9°C (57°F) [RH = 81%]
Pressure (altimeter): 30.06 inches Hg (1018.0 mb)
[Sea-level pressure: 1017.8 mb]
Winds: from the S (180 degrees) at 6 MPH (5 knots; 2.6 m/s)
Visibility: 10 or more miles (16+ km)
Ceiling: at least 12,000 feet AGL
Clouds: sky clear below 12,000 feet AGL
Present Weather: no significant weather observed at this time
KBKV 270153Z 18005KT 10SM CLR 17/14 A3006 RMK AO2 SLP178 T01720139

Conditions at: KBKV observed 27 May 2017  00:53 UTC
Temperature: 19.4°C (67°F)
Dewpoint: 13.9°C (57°F) [RH = 71%]
Pressure (altimeter): 30.06 inches Hg (1018.0 mb)
[Sea-level pressure: 1017.8 mb]
Winds: from the W (270 degrees) at 5 MPH (4 knots; 2.1 m/s)
Visibility: 10 or more miles (16+ km)
Ceiling: at least 12,000 feet AGL
Clouds: sky clear below 12,000 feet AGL
Present Weather: no significant weather observed at this time
KBKV 270053Z 27004KT 10SM CLR 19/14 A3006 RMK AO2 SLP178 T01940139

Conditions at: KBKV observed 26 May 2017  23:53 UTC
Temperature: 24.4°C (76°F)
Dewpoint: 12.8°C (55°F) [RH = 48%]
Pressure (altimeter): 30.05 inches Hg (1017.7 mb)
[Sea-level pressure: 1017.3 mb]
Winds: from the W (260 degrees) at 7 MPH (6 knots; 3.1 m/s)
Visibility: 10 or more miles (16+ km)
Ceiling: at least 12,000 feet AGL
Clouds: sky clear below 12,000 feet AGL
Present Weather: no significant weather observed at this time
KBKV 262353Z 26006KT 10SM CLR 24/13 A3005 RMK AO2 SLP173 T02440128 10306 20244 55000

Conditions at: KBKV observed 26 May 2017  22:53 UTC
Temperature: 27.2°C (81°F)
Dewpoint: 11.1°C (52°F) [RH = 37%]
Pressure (altimeter): 30.04 inches Hg (1017.4 mb)
[Sea-level pressure: 1017.0 mb]
Winds: from the W (280 degrees) at 7 MPH (6 knots; 3.1 m/s)
Visibility: 10 or more miles (16+ km)
Ceiling: at least 12,000 feet AGL
Clouds: sky clear below 12,000 feet AGL
Present Weather: no significant weather observed at this time
KBKV 262253Z 28006KT 10SM CLR 27/11 A3004 RMK AO2 SLP170 T02720111

Conditions at: KBKV observed 26 May 2017  21:53 UTC
Temperature: 28.3°C (83°F)
Dewpoint: 11.1°C (52°F) [RH = 34%]
Pressure (altimeter): 30.04 inches Hg (1017.4 mb)
[Sea-level pressure: 1017.0 mb]
Winds: from the NW (310 degrees) at 12 MPH (10 knots; 5.2 m/s)
Visibility: 10 or more miles (16+ km)
Ceiling: at least 12,000 feet AGL
Clouds: sky clear below 12,000 feet AGL
Present Weather: no significant weather observed at this time
KBKV 262153Z 31010KT 10SM CLR 28/11 A3004 RMK AO2 SLP170 T02830111

Conditions at: KBKV observed 26 May 2017  20:53 UTC
Temperature: 28.9°C (84°F)
Dewpoint: 11.1°C (52°F) [RH = 33%]
Pressure (altimeter): 30.05 inches Hg (1017.7 mb)
[Sea-level pressure: 1017.3 mb]
Winds: from the WNW (290 degrees) at 14 MPH (12 knots; 6.2 m/s)
Visibility: 10 or more miles (16+ km)
Ceiling: at least 12,000 feet AGL
Clouds: sky clear below 12,000 feet AGL
Present Weather: no significant weather observed at this time
KBKV 262053Z 29012KT 10SM CLR 29/11 A3005 RMK AO2 SLP173 T02890111 55005

Conditions at: KBKV observed 26 May 2017  19:53 UTC
Temperature: 29.4°C (85°F)
Dewpoint: 12.2°C (54°F) [RH = 35%]
Pressure (altimeter): 30.05 inches Hg (1017.7 mb)
[Sea-level pressure: 1017.3 mb]
Winds: from the NW (310 degrees) at 13 MPH (11 knots; 5.7 m/s)
Visibility: 10 or more miles (16+ km)
Ceiling: at least 12,000 feet AGL
Clouds: sky clear below 12,000 feet AGL
Present Weather: no significant weather observed at this time
KBKV 261953Z 31011KT 10SM CLR 29/12 A3005 RMK AO2 SLP173 T02940122

Conditions at: KBKV observed 26 May 2017  18:53 UTC
Temperature: 30.6°C (87°F)
Dewpoint: 10.6°C (51°F) [RH = 29%]
Pressure (altimeter): 30.06 inches Hg (1018.0 mb)
[Sea-level pressure: 1017.8 mb]
Winds: from the W (270 degrees) at 7 MPH (6 knots; 3.1 m/s)
Visibility: 10 or more miles (16+ km)
Ceiling: at least 12,000 feet AGL
Clouds: sky clear below 12,000 feet AGL
Present Weather: no significant weather observed at this time
KBKV 261853Z 27006KT 10SM CLR 31/11 A3006 RMK AO2 SLP178 T03060106

Conditions at: KBKV observed 26 May 2017  17:53 UTC
Temperature: 30.0°C (86°F)
Dewpoint: 11.7°C (53°F) [RH = 32%]
Pressure (altimeter): 30.06 inches Hg (1018.0 mb)
[Sea-level pressure: 1017.8 mb]
Winds: from the WSW (240 degrees) at 8 MPH (7 knots; 3.6 m/s)
Visibility: 10 or more miles (16+ km)
Ceiling: at least 12,000 feet AGL
Clouds: sky clear below 12,000 feet AGL
Present Weather: no significant weather observed at this time
KBKV 261753Z 24007KT 10SM CLR 30/12 A3006 RMK AO2 SLP178 T03000117 10306 20183 58010

Conditions at: KBKV observed 26 May 2017  16:53 UTC
Temperature: 29.4°C (85°F)
Dewpoint: 13.9°C (57°F) [RH = 39%]
Pressure (altimeter): 30.07 inches Hg (1018.4 mb)
[Sea-level pressure: 1018.2 mb]
Winds: from the W (280 degrees) at 7 MPH (6 knots; 3.1 m/s)
Visibility: 10 or more miles (16+ km)
Ceiling: at least 12,000 feet AGL
Clouds: sky clear below 12,000 feet AGL
Present Weather: no significant weather observed at this time
KBKV 261653Z 28006KT 10SM CLR 29/14 A3007 RMK AO2 SLP182 T02940139

Conditions at: KBKV observed 26 May 2017  15:53 UTC
Temperature: 27.2°C (81°F)
Dewpoint: 14.4°C (58°F) [RH = 45%]
Pressure (altimeter): 30.09 inches Hg (1019.0 mb)
[Sea-level pressure: 1018.7 mb]
Winds: calm
Visibility: 10 or more miles (16+ km)
Ceiling: at least 12,000 feet AGL
Clouds: sky clear below 12,000 feet AGL
Present Weather: no significant weather observed at this time
KBKV 261553Z 00000KT 10SM CLR 27/14 A3009 RMK AO2 SLP187 T02720144

Conditions at: KBKV observed 26 May 2017  14:53 UTC
Temperature: 27.2°C (81°F)
Dewpoint: 15.0°C (59°F) [RH = 47%]
Pressure (altimeter): 30.09 inches Hg (1019.0 mb)
[Sea-level pressure: 1018.8 mb]
Winds: from the NNE (30 degrees) at 5 MPH (4 knots; 2.1 m/s)
Visibility: 10 or more miles (16+ km)
Ceiling: at least 12,000 feet AGL
Clouds: sky clear below 12,000 feet AGL
Present Weather: no significant weather observed at this time
KBKV 261453Z 03004KT 10SM CLR 27/15 A3009 RMK AO2 SLP188 T02720150 50008

Conditions at: KBKV observed 26 May 2017  13:53 UTC
Temperature: 26.1°C (79°F)
Dewpoint: 16.1°C (61°F) [RH = 54%]
Pressure (altimeter): 30.09 inches Hg (1019.0 mb)
[Sea-level pressure: 1018.8 mb]
Winds: from the NNE (20 degrees) at 8 MPH (7 knots; 3.6 m/s)
Visibility: 10 or more miles (16+ km)
Ceiling: at least 12,000 feet AGL
Clouds: sky clear below 12,000 feet AGL
Present Weather: no significant weather observed at this time
KBKV 261353Z 02007KT 10SM CLR 26/16 A3009 RMK AO2 SLP188 T02610161

Conditions at: KBKV observed 26 May 2017  12:53 UTC
Temperature: 23.3°C (74°F)
Dewpoint: 17.2°C (63°F) [RH = 69%]
Pressure (altimeter): 30.08 inches Hg (1018.7 mb)
[Sea-level pressure: 1018.6 mb]
Winds: from the N (350 degrees) at 5 MPH (4 knots; 2.1 m/s)
Visibility: 10 or more miles (16+ km)
Ceiling: at least 12,000 feet AGL
Clouds: sky clear below 12,000 feet AGL
Present Weather: no significant weather observed at this time
KBKV 261253Z 35004KT 10SM CLR 23/17 A3008 RMK AO2 SLP186 T02330172

Conditions at: KBKV observed 26 May 2017  11:53 UTC
Temperature: 18.3°C (65°F)
Dewpoint: 16.7°C (62°F) [RH = 90%]
Pressure (altimeter): 30.07 inches Hg (1018.4 mb)
[Sea-level pressure: 1017.9 mb]
Winds: calm
Visibility: 10 or more miles (16+ km)
Ceiling: at least 12,000 feet AGL
Clouds: sky clear below 12,000 feet AGL
Present Weather: no significant weather observed at this time
KBKV 261153Z 00000KT 10SM CLR 18/17 A3007 RMK AO2 SLP179 T01830167 10183 20150 53017

Conditions at: KBKV observed 26 May 2017  10:53 UTC
Temperature: 16.1°C (61°F)
Dewpoint: 15.0°C (59°F) [RH = 93%]
Pressure (altimeter): 30.05 inches Hg (1017.7 mb)
[Sea-level pressure: 1017.3 mb]
Winds: from the NE (50 degrees) at 3 MPH (3 knots; 1.6 m/s)
Visibility: 10 or more miles (16+ km)
Ceiling: at least 12,000 feet AGL
Clouds: sky clear below 12,000 feet AGL
Present Weather: no significant weather observed at this time
KBKV 261053Z 05003KT 10SM CLR 16/15 A3005 RMK AO2 SLP173 T01610150

Conditions at: KBKV observed 26 May 2017  09:53 UTC
Temperature: 16.7°C (62°F)
Dewpoint: 15.6°C (60°F) [RH = 93%]
Pressure (altimeter): 30.03 inches Hg (1017.0 mb)
[Sea-level pressure: 1016.7 mb]
Winds: calm
Visibility: 10 or more miles (16+ km)
Ceiling: 4100 feet AGL
Clouds: broken clouds at 4100 feet AGL
Present Weather: automated observation with no human augmentation;
there may or may not be significant weather present at this time
KBKV 260953Z AUTO 00000KT 10SM BKN041 17/16 A3003 RMK AO2 SLP167 T01670156

Conditions at: KBKV observed 26 May 2017  08:53 UTC
Temperature: 17.2°C (63°F)
Dewpoint: 15.6°C (60°F) [RH = 90%]
Pressure (altimeter): 30.01 inches Hg (1016.3 mb)
[Sea-level pressure: 1016.2 mb]
Winds: calm
Visibility: 10 or more miles (16+ km)
Ceiling: 4100 feet AGL
Clouds: broken clouds at 4100 feet AGL
Present Weather: automated observation with no human augmentation;
there may or may not be significant weather present at this time
KBKV 260853Z AUTO 00000KT 10SM BKN041 17/16 A3001 RMK AO2 SLP162 T01720156 53008